createdAt,value
2023-03-14T00:01:27.809Z,7.51
2023-03-14T00:03:54.421Z,7.47
2023-03-14T00:06:21.183Z,7.44
2023-03-14T00:08:48.002Z,7.44
2023-03-14T00:11:17.451Z,7.39
2023-03-14T00:13:44.166Z,7.39
2023-03-14T00:16:13.401Z,7.37
2023-03-14T00:18:40.761Z,7.32
2023-03-14T00:21:09.626Z,7.31
2023-03-14T00:23:38.590Z,7.29
2023-03-14T00:26:08.957Z,7.26
2023-03-14T00:28:36.068Z,7.25
2023-03-14T00:31:07.774Z,7.25
2023-03-14T00:33:34.963Z,7.23
2023-03-14T00:36:06.363Z,7.22
2023-03-14T00:38:34.085Z,7.19
2023-03-14T00:41:03.706Z,7.16
2023-03-14T00:43:30.423Z,7.15
2023-03-14T00:45:58.114Z,7.11
2023-03-14T00:48:24.698Z,7.13
2023-03-14T00:50:51.231Z,7.13
2023-03-14T00:53:18.246Z,7.11
2023-03-14T00:55:45.457Z,7.11
2023-03-14T00:58:13.697Z,7.10
2023-03-14T01:00:40.721Z,7.05
2023-03-14T01:03:08.089Z,7.02
2023-03-14T01:05:36.123Z,7.03
2023-03-14T01:08:03.433Z,7.01
2023-03-14T01:10:30.330Z,6.98
2023-03-14T01:12:57.022Z,6.98
2023-03-14T01:15:23.580Z,6.99
2023-03-14T01:17:50.419Z,6.94
2023-03-14T01:20:18.461Z,6.93
2023-03-14T01:22:45.546Z,6.93
2023-03-14T01:25:15.394Z,6.91
2023-03-14T01:27:42.248Z,6.90
2023-03-14T01:30:30.467Z,6.86
2023-03-14T01:32:57.028Z,6.87
2023-03-14T01:35:23.536Z,6.84
2023-03-14T01:37:50.041Z,6.82
2023-03-14T01:40:18.076Z,6.76
2023-03-14T01:42:56.018Z,6.76
2023-03-14T01:46:00.440Z,6.73
2023-03-14T01:48:32.278Z,6.66
2023-03-14T01:51:02.085Z,6.62
2023-03-14T01:53:29.729Z,6.60
2023-03-14T01:55:57.962Z,6.60
2023-03-14T01:58:28.286Z,6.54
2023-03-14T02:00:58.368Z,6.52
2023-03-14T02:03:26.529Z,6.44
2023-03-14T02:05:58.913Z,6.43
2023-03-14T02:08:25.762Z,6.38
2023-03-14T02:10:52.439Z,6.38
2023-03-14T02:13:21.204Z,6.38
2023-03-14T02:15:48.800Z,6.35
2023-03-14T02:18:17.205Z,6.30
2023-03-14T02:21:09.499Z,6.29
2023-03-14T02:24:08.415Z,6.28
2023-03-14T02:27:04.181Z,6.24
2023-03-14T02:29:32.877Z,6.19
2023-03-14T02:31:59.450Z,6.20
2023-03-14T02:34:27.076Z,6.16
2023-03-14T02:36:54.165Z,6.13
2023-03-14T02:39:38.177Z,6.11
2023-03-14T02:42:04.895Z,6.07
2023-03-14T02:44:31.446Z,6.05
2023-03-14T02:46:58.289Z,6.02
2023-03-14T02:49:28.242Z,5.98
2023-03-14T02:51:54.760Z,5.96
2023-03-14T02:54:21.765Z,5.92
2023-03-14T02:56:48.347Z,5.90
2023-03-14T02:59:14.864Z,5.91
2023-03-14T03:01:41.483Z,5.93
2023-03-14T03:04:08.069Z,5.90
2023-03-14T03:06:34.575Z,5.86
2023-03-14T03:09:01.498Z,5.80
2023-03-14T03:11:28.136Z,5.84
2023-03-14T03:13:54.676Z,5.82
2023-03-14T03:16:21.234Z,5.77
2023-03-14T03:18:47.824Z,5.76
2023-03-14T03:21:14.336Z,5.78
2023-03-14T03:23:41.013Z,5.76
2023-03-14T03:26:07.546Z,5.73
2023-03-14T03:28:34.106Z,5.66
2023-03-14T03:31:08.165Z,5.68
2023-03-14T03:33:34.793Z,5.64
2023-03-14T03:36:01.345Z,5.64
2023-03-14T03:38:27.935Z,5.60
2023-03-14T03:40:54.417Z,5.61
2023-03-14T03:43:20.972Z,5.62
2023-03-14T03:45:47.630Z,5.58
2023-03-14T03:48:14.132Z,5.55
2023-03-14T03:50:46.120Z,5.55
2023-03-14T03:53:15.571Z,5.53
2023-03-14T03:55:43.434Z,5.54
2023-03-14T03:58:10.059Z,5.49
2023-03-14T04:00:36.623Z,5.45
2023-03-14T04:03:03.211Z,5.43
2023-03-14T04:05:29.825Z,5.43
2023-03-14T04:07:56.393Z,5.41
2023-03-14T04:10:23.128Z,5.43
2023-03-14T04:12:49.635Z,5.40
2023-03-14T04:15:16.192Z,5.39
2023-03-14T04:17:42.663Z,5.36
2023-03-14T04:20:11.757Z,5.33
2023-03-14T04:22:39.363Z,5.35
2023-03-14T04:25:12.225Z,5.34
2023-03-14T04:27:38.753Z,5.30
2023-03-14T04:30:05.729Z,5.31
2023-03-14T04:32:32.325Z,5.27
2023-03-14T04:34:58.806Z,5.24
2023-03-14T04:37:25.632Z,5.21
2023-03-14T04:39:52.145Z,5.20
2023-03-14T04:42:18.635Z,5.18
2023-03-14T04:44:45.653Z,5.17
2023-03-14T04:47:12.140Z,5.20
2023-03-14T04:49:38.756Z,5.17
2023-03-14T04:52:05.345Z,5.15
2023-03-14T04:54:32.026Z,5.13
2023-03-14T04:56:58.512Z,5.09
2023-03-14T04:59:25.099Z,5.05
2023-03-14T05:01:51.736Z,5.07
2023-03-14T05:04:18.304Z,5.03
2023-03-14T05:06:47.203Z,4.99
2023-03-14T05:09:13.701Z,4.97
2023-03-14T05:11:40.203Z,4.99
2023-03-14T05:14:06.735Z,4.96
2023-03-14T05:16:33.482Z,4.95
2023-03-14T05:19:00.663Z,4.92
2023-03-14T05:21:27.169Z,4.91
2023-03-14T05:23:53.709Z,4.89
2023-03-14T05:26:20.266Z,4.91
2023-03-14T05:28:46.997Z,4.88
2023-03-14T05:31:13.679Z,4.86
2023-03-14T05:33:40.917Z,4.82
2023-03-14T05:36:08.062Z,4.79
2023-03-14T05:38:34.634Z,4.80
2023-03-14T05:41:01.126Z,4.81
2023-03-14T05:43:27.655Z,4.79
2023-03-14T05:45:54.404Z,4.76
2023-03-14T05:48:22.608Z,4.77
2023-03-14T05:50:49.537Z,4.75
2023-03-14T05:53:16.055Z,4.77
2023-03-14T05:55:42.610Z,4.74
2023-03-14T05:58:09.122Z,4.71
2023-03-14T06:00:35.631Z,4.69
2023-03-14T06:03:02.159Z,4.69
2023-03-14T06:05:28.748Z,4.67
2023-03-14T06:07:55.273Z,4.68
2023-03-14T06:10:21.818Z,4.68
2023-03-14T06:12:48.334Z,4.66
2023-03-14T06:15:14.821Z,4.63
2023-03-14T06:17:41.303Z,4.66
2023-03-14T06:20:09.200Z,4.62
2023-03-14T06:22:35.754Z,4.60
2023-03-14T06:25:02.351Z,4.55
2023-03-14T06:27:28.910Z,4.54
2023-03-14T06:29:58.360Z,4.52
2023-03-14T06:32:25.682Z,4.50
2023-03-14T06:34:52.269Z,4.48
2023-03-14T06:37:20.641Z,4.50
2023-03-14T06:39:47.717Z,4.48
2023-03-14T06:42:14.697Z,4.46
2023-03-14T06:44:41.255Z,4.45
2023-03-14T06:47:07.747Z,4.43
2023-03-14T06:49:34.316Z,4.40
2023-03-14T06:52:00.805Z,4.36
2023-03-14T06:54:27.575Z,4.33
2023-03-14T06:56:54.327Z,4.32
2023-03-14T06:59:20.890Z,4.29
2023-03-14T07:01:49.118Z,4.27
2023-03-14T07:04:15.719Z,4.27
2023-03-14T07:06:45.279Z,4.20
2023-03-14T07:09:13.326Z,4.16
2023-03-14T07:11:40.040Z,4.10
2023-03-14T07:14:06.837Z,4.06
2023-03-14T07:16:34.078Z,4.03
2023-03-14T07:19:02.587Z,4.01
2023-03-14T07:21:29.287Z,4.00
2023-03-14T07:23:56.030Z,3.95
2023-03-14T07:26:22.623Z,3.95
2023-03-14T07:28:49.124Z,3.92
2023-03-14T07:31:15.644Z,3.95
2023-03-14T07:33:42.232Z,3.95
2023-03-14T07:36:09.335Z,3.93
2023-03-14T07:38:35.953Z,3.91
2023-03-14T07:41:04.446Z,3.92
2023-03-14T07:43:30.968Z,3.91
2023-03-14T07:45:59.962Z,3.92
2023-03-14T07:48:28.041Z,3.93
2023-03-14T07:50:55.778Z,3.92
2023-03-14T07:53:23.078Z,3.95
2023-03-14T07:55:52.689Z,3.93
2023-03-14T07:58:20.233Z,3.96
2023-03-14T08:00:46.720Z,3.96
2023-03-14T08:03:13.310Z,3.99
2023-03-14T08:05:40.861Z,4.05
2023-03-14T08:08:07.438Z,4.07
2023-03-14T08:10:34.253Z,4.13
2023-03-14T08:13:01.798Z,4.17
2023-03-14T08:15:30.398Z,4.22
2023-03-14T08:17:57.074Z,4.27
2023-03-14T08:20:26.561Z,4.31
2023-03-14T08:22:53.900Z,4.37
2023-03-14T08:25:20.510Z,4.45
2023-03-14T08:27:47.135Z,4.52
2023-03-14T08:30:16.097Z,4.58
2023-03-14T08:32:42.914Z,4.63
2023-03-14T08:35:10.717Z,4.69
2023-03-14T08:37:37.720Z,4.73
2023-03-14T08:40:09.787Z,4.78
2023-03-14T08:42:37.690Z,4.86
2023-03-14T08:45:04.889Z,4.90
2023-03-14T08:47:31.529Z,4.98
2023-03-14T08:49:58.080Z,5.06
2023-03-14T08:52:24.802Z,5.15
2023-03-14T08:54:51.399Z,5.25
2023-03-14T08:57:17.939Z,5.34
2023-03-14T08:59:44.535Z,5.46
2023-03-14T09:02:14.156Z,5.58
2023-03-14T09:04:40.825Z,5.70
2023-03-14T09:07:07.447Z,5.82
2023-03-14T09:09:33.992Z,5.93
2023-03-14T09:12:00.530Z,6.06
2023-03-14T09:14:27.228Z,6.16
2023-03-14T09:16:53.913Z,6.27
2023-03-14T09:19:20.540Z,6.40
2023-03-14T09:21:47.033Z,6.51
2023-03-14T09:24:13.705Z,6.64
2023-03-14T09:26:40.293Z,6.78
2023-03-14T09:29:06.748Z,6.93
2023-03-14T09:31:33.392Z,7.10
2023-03-14T09:33:59.987Z,7.25
2023-03-14T09:36:26.489Z,7.40
2023-03-14T09:38:53.070Z,7.56
2023-03-14T09:41:27.153Z,7.72
2023-03-14T09:44:20.285Z,7.85
2023-03-14T09:46:52.492Z,7.96
2023-03-14T09:49:18.939Z,8.04
2023-03-14T09:51:48.857Z,8.10
2023-03-14T09:54:35.521Z,8.20
2023-03-14T09:57:03.672Z,8.30
2023-03-14T09:59:31.015Z,8.40
2023-03-14T10:02:02.420Z,8.48
2023-03-14T10:04:31.125Z,8.56
2023-03-14T10:06:57.724Z,8.64
2023-03-14T10:09:26.434Z,8.69
2023-03-14T10:11:58.285Z,8.77
2023-03-14T10:14:34.110Z,8.86
2023-03-14T10:17:11.051Z,8.92
2023-03-14T10:19:38.953Z,9.00
2023-03-14T10:22:07.002Z,9.06
2023-03-14T10:24:36.033Z,9.13
2023-03-14T10:27:06.768Z,9.21
2023-03-14T10:29:35.239Z,9.31
2023-03-14T10:32:08.872Z,9.41
2023-03-14T10:34:38.519Z,9.52
2023-03-14T10:37:18.430Z,9.62
2023-03-14T10:40:06.552Z,9.74
2023-03-14T10:42:35.877Z,9.84
2023-03-14T10:45:06.626Z,9.96
2023-03-14T10:47:33.630Z,10.10
2023-03-14T10:50:30.717Z,10.22
2023-03-14T10:53:03.139Z,10.31
2023-03-14T10:55:41.495Z,10.41
2023-03-14T10:58:31.861Z,10.51
2023-03-14T11:01:10.816Z,10.59
2023-03-14T11:03:40.829Z,10.69
2023-03-14T11:06:12.202Z,10.83
2023-03-14T11:08:52.959Z,10.95
2023-03-14T11:11:24.007Z,11.07
2023-03-14T11:14:35.453Z,11.13
2023-03-14T11:17:21.970Z,11.15
2023-03-14T11:19:58.747Z,11.19
2023-03-14T11:22:42.005Z,11.20
2023-03-14T11:25:15.016Z,11.22
2023-03-14T11:28:02.691Z,11.19
2023-03-14T11:30:31.896Z,11.15
2023-03-14T11:33:14.155Z,11.04
2023-03-14T11:35:56.635Z,10.93
2023-03-14T11:38:53.165Z,10.83
2023-03-14T11:41:25.910Z,10.73
2023-03-14T11:43:58.448Z,10.63
2023-03-14T11:46:46.743Z,10.52
2023-03-14T11:49:25.128Z,10.39
2023-03-14T11:51:56.704Z,10.25
2023-03-14T11:54:50.742Z,10.12
2023-03-14T11:57:19.090Z,9.90
2023-03-14T12:00:22.884Z,9.68
2023-03-14T12:02:57.495Z,9.44
2023-03-14T12:05:51.468Z,9.26
2023-03-14T12:08:34.341Z,9.10
2023-03-14T12:11:14.691Z,8.95
2023-03-14T12:13:46.473Z,8.84
2023-03-14T12:16:21.940Z,8.70
2023-03-14T12:18:48.577Z,8.66
2023-03-14T12:21:15.414Z,8.76
2023-03-14T12:23:47.887Z,8.94
2023-03-14T12:26:23.727Z,9.12
2023-03-14T12:29:10.566Z,9.32
2023-03-14T12:31:39.763Z,9.52
2023-03-14T12:34:12.595Z,9.72
2023-03-14T12:36:51.137Z,9.93
2023-03-14T12:39:41.839Z,10.15
2023-03-14T12:42:44.030Z,10.40
2023-03-14T12:45:26.384Z,10.64
2023-03-14T12:47:56.211Z,10.88
2023-03-14T12:50:28.085Z,11.11
2023-03-14T12:53:19.607Z,11.33
2023-03-14T12:56:08.952Z,11.46
2023-03-14T12:58:40.565Z,11.47
2023-03-14T13:01:16.777Z,11.44
2023-03-14T13:03:47.557Z,11.37
2023-03-14T13:06:36.800Z,11.25
2023-03-14T13:09:35.352Z,11.10
2023-03-14T13:12:11.877Z,10.99
2023-03-14T13:14:43.666Z,10.96
2023-03-14T13:17:33.554Z,11.00
2023-03-14T13:20:06.004Z,11.13
2023-03-14T13:22:38.053Z,11.29
2023-03-14T13:25:07.404Z,11.43
2023-03-14T13:27:36.074Z,11.46
2023-03-14T13:30:24.036Z,11.44
2023-03-14T13:32:52.674Z,11.37
2023-03-14T13:35:24.360Z,11.27
2023-03-14T13:38:17.606Z,11.15
2023-03-14T13:40:46.316Z,10.95
2023-03-14T13:43:17.830Z,10.84
2023-03-14T13:45:57.632Z,10.65
2023-03-14T13:48:28.924Z,10.55
2023-03-14T13:51:02.754Z,10.47
2023-03-14T13:53:30.709Z,10.51
2023-03-14T13:55:57.433Z,10.56
2023-03-14T13:58:30.068Z,10.62
2023-03-14T14:01:07.675Z,10.66
2023-03-14T14:03:40.112Z,10.69
2023-03-14T14:06:17.643Z,10.74
2023-03-14T14:08:44.938Z,10.80
2023-03-14T14:11:25.964Z,10.87
2023-03-14T14:13:55.897Z,10.91
2023-03-14T14:16:28.386Z,10.91
2023-03-14T14:18:57.244Z,10.89
2023-03-14T14:21:25.023Z,10.87
2023-03-14T14:23:51.783Z,10.82
2023-03-14T14:26:20.617Z,10.76
2023-03-14T14:28:50.359Z,10.62
2023-03-14T14:31:23.072Z,10.53
2023-03-14T14:33:59.786Z,10.44
2023-03-14T14:36:33.882Z,10.39
2023-03-14T14:39:10.097Z,10.29
2023-03-14T14:41:42.479Z,10.21
2023-03-14T14:44:13.579Z,10.11
2023-03-14T14:46:40.200Z,10.01
2023-03-14T14:49:20.158Z,9.91
2023-03-14T14:51:51.596Z,9.85
2023-03-14T14:54:33.493Z,9.71
2023-03-14T14:57:05.643Z,9.63
2023-03-14T14:59:33.889Z,9.51
2023-03-14T15:02:02.968Z,9.41
2023-03-14T15:04:32.818Z,9.33
2023-03-14T15:06:59.662Z,9.23
2023-03-14T15:09:26.228Z,9.09
2023-03-14T15:11:52.824Z,8.97
2023-03-14T15:14:19.339Z,8.82
2023-03-14T15:16:45.892Z,8.60
2023-03-14T15:19:25.936Z,8.43
2023-03-14T15:21:55.536Z,8.31
2023-03-14T15:24:22.915Z,8.28
2023-03-14T15:26:49.537Z,8.21
2023-03-14T15:29:16.123Z,8.14
2023-03-14T15:31:44.902Z,8.05
2023-03-14T15:34:12.326Z,8.01
2023-03-14T15:36:39.712Z,7.98
2023-03-14T15:39:07.418Z,7.95
2023-03-14T15:41:34.445Z,7.88
2023-03-14T15:44:00.978Z,7.78
2023-03-14T15:46:29.841Z,7.69
2023-03-14T15:48:57.473Z,7.61
2023-03-14T15:51:23.951Z,7.55
2023-03-14T15:53:50.688Z,7.54
2023-03-14T15:56:19.914Z,7.53
2023-03-14T15:58:49.736Z,7.53
2023-03-14T16:01:17.130Z,7.55
2023-03-14T16:03:46.017Z,7.51
2023-03-14T16:06:13.893Z,7.54
2023-03-14T16:08:40.606Z,7.52
2023-03-14T16:11:09.551Z,7.48
2023-03-14T16:13:36.070Z,7.46
2023-03-14T16:16:05.112Z,7.42
2023-03-14T16:18:34.356Z,7.40
2023-03-14T16:21:20.053Z,7.39
2023-03-14T16:23:47.317Z,7.36
2023-03-14T16:26:19.113Z,7.36
2023-03-14T16:28:47.337Z,7.39
2023-03-14T16:31:17.453Z,7.39
2023-03-14T16:33:44.704Z,7.40
2023-03-14T16:36:13.582Z,7.40
2023-03-14T16:38:41.951Z,7.40
2023-03-14T16:41:17.003Z,7.37
2023-03-14T16:43:43.954Z,7.33
2023-03-14T16:46:17.448Z,7.30
2023-03-14T16:48:45.064Z,7.23
2023-03-14T16:51:12.048Z,7.20
2023-03-14T16:53:38.581Z,7.16
2023-03-14T16:56:05.430Z,7.11
2023-03-14T16:58:32.031Z,7.04
2023-03-14T17:00:59.147Z,7.01
2023-03-14T17:03:27.945Z,6.93
2023-03-14T17:05:54.601Z,6.85
2023-03-14T17:08:21.468Z,6.76
2023-03-14T17:10:48.096Z,6.64
2023-03-14T17:13:14.708Z,6.60
2023-03-14T17:15:46.684Z,6.54
2023-03-14T17:18:13.271Z,6.44
2023-03-14T17:20:41.162Z,6.37
2023-03-14T17:23:08.012Z,6.31
2023-03-14T17:25:36.395Z,6.23
2023-03-14T17:28:03.071Z,6.14
2023-03-14T17:30:29.588Z,6.09
2023-03-14T17:32:57.528Z,6.00
2023-03-14T17:35:25.168Z,5.94
2023-03-14T17:37:51.704Z,5.89
2023-03-14T17:40:18.634Z,5.84
2023-03-14T17:42:45.204Z,5.78
2023-03-14T17:45:11.916Z,5.73
2023-03-14T17:47:38.441Z,5.71
2023-03-14T17:50:05.489Z,5.68
2023-03-14T17:52:33.767Z,5.67
2023-03-14T17:55:00.779Z,5.59
2023-03-14T17:57:28.186Z,5.55
2023-03-14T17:59:54.978Z,5.48
2023-03-14T18:02:22.976Z,5.42
2023-03-14T18:04:52.244Z,5.36
2023-03-14T18:07:20.645Z,5.31
2023-03-14T18:09:47.556Z,5.29
2023-03-14T18:12:14.146Z,5.24
2023-03-14T18:14:44.294Z,5.20
2023-03-14T18:17:15.344Z,5.23
2023-03-14T18:19:42.308Z,5.21
2023-03-14T18:22:09.456Z,5.22
2023-03-14T18:24:36.053Z,5.22
2023-03-14T18:27:02.622Z,5.24
2023-03-14T18:29:29.175Z,5.23
2023-03-14T18:31:58.221Z,5.28
2023-03-14T18:34:25.981Z,5.23
2023-03-14T18:36:52.571Z,5.25
2023-03-14T18:39:19.154Z,5.22
2023-03-14T18:41:45.694Z,5.23
2023-03-14T18:44:12.269Z,5.25
2023-03-14T18:46:38.893Z,5.27
2023-03-14T18:49:05.489Z,5.26
2023-03-14T18:51:33.408Z,5.21
2023-03-14T18:54:10.322Z,5.20
2023-03-14T18:56:39.121Z,5.17
2023-03-14T18:59:05.877Z,5.18
2023-03-14T19:01:34.203Z,5.19
2023-03-14T19:04:01.929Z,5.14
2023-03-14T19:06:31.958Z,5.15
2023-03-14T19:08:59.257Z,5.10
2023-03-14T19:11:26.835Z,5.08
2023-03-14T19:13:54.958Z,5.04
2023-03-14T19:16:27.873Z,4.95
2023-03-14T19:18:55.584Z,4.85
2023-03-14T19:21:33.747Z,4.83
2023-03-14T19:24:00.985Z,4.82
2023-03-14T19:26:29.989Z,4.77
2023-03-14T19:28:56.701Z,4.77
2023-03-14T19:31:23.386Z,4.79
2023-03-14T19:33:49.996Z,4.77
2023-03-14T19:36:28.953Z,4.74
2023-03-14T19:38:55.536Z,4.70
2023-03-14T19:41:24.180Z,4.63
2023-03-14T19:43:52.565Z,4.55
2023-03-14T19:46:19.493Z,4.54
2023-03-14T19:48:46.222Z,4.39
2023-03-14T19:51:13.765Z,4.36
2023-03-14T19:53:41.889Z,4.31
2023-03-14T19:56:09.458Z,4.24
2023-03-14T19:58:38.407Z,4.17
2023-03-14T20:01:06.124Z,4.07
2023-03-14T20:03:37.091Z,4.02
2023-03-14T20:06:11.743Z,3.95
2023-03-14T20:08:39.300Z,3.90
2023-03-14T20:11:07.230Z,3.87
2023-03-14T20:13:33.959Z,3.85
2023-03-14T20:16:03.947Z,3.81
2023-03-14T20:18:31.344Z,3.72
2023-03-14T20:20:58.076Z,3.66
2023-03-14T20:23:24.626Z,3.61
2023-03-14T20:25:55.497Z,3.63
2023-03-14T20:28:22.202Z,3.55
2023-03-14T20:30:49.095Z,3.49
2023-03-14T20:33:18.645Z,3.48
2023-03-14T20:35:56.049Z,3.38
2023-03-14T20:38:24.221Z,3.37
2023-03-14T20:40:50.744Z,3.36
2023-03-14T20:43:17.280Z,3.32
2023-03-14T20:45:43.814Z,3.35
2023-03-14T20:48:10.395Z,3.40
2023-03-14T20:50:36.937Z,3.40
2023-03-14T20:53:03.645Z,3.41
2023-03-14T20:55:30.268Z,3.41
2023-03-14T20:57:56.844Z,3.36
2023-03-14T21:00:23.508Z,3.32
2023-03-14T21:02:50.072Z,3.31
2023-03-14T21:05:17.251Z,3.30
2023-03-14T21:07:45.306Z,3.27
2023-03-14T21:10:12.942Z,3.22
2023-03-14T21:12:39.832Z,3.24
2023-03-14T21:15:07.796Z,3.17
2023-03-14T21:17:34.744Z,3.13
2023-03-14T21:20:01.327Z,3.08
2023-03-14T21:22:29.485Z,3.11
2023-03-14T21:24:56.546Z,3.07
2023-03-14T21:27:23.222Z,3.05
2023-03-14T21:29:49.763Z,2.96
2023-03-14T21:32:16.338Z,2.94
2023-03-14T21:34:42.912Z,2.88
2023-03-14T21:37:09.433Z,2.89
2023-03-14T21:39:35.928Z,2.80
2023-03-14T21:42:02.667Z,2.78
2023-03-14T21:44:29.170Z,2.75
2023-03-14T21:46:55.872Z,2.74
2023-03-14T21:49:22.469Z,2.68
2023-03-14T21:51:48.949Z,2.62
2023-03-14T21:54:16.940Z,2.67
2023-03-14T21:56:44.264Z,2.58
2023-03-14T21:59:11.754Z,2.61
2023-03-14T22:01:38.323Z,2.58
2023-03-14T22:04:06.165Z,2.48
2023-03-14T22:06:35.070Z,2.41
2023-03-14T22:09:01.784Z,2.40
2023-03-14T22:11:28.893Z,2.33
2023-03-14T22:13:55.396Z,2.25
2023-03-14T22:16:22.036Z,2.21
2023-03-14T22:18:48.701Z,2.18
2023-03-14T22:21:15.185Z,2.15
2023-03-14T22:23:41.807Z,2.11
2023-03-14T22:26:08.355Z,2.04
2023-03-14T22:28:34.929Z,1.97
2023-03-14T22:31:03.443Z,1.90
2023-03-14T22:33:31.443Z,1.80
2023-03-14T22:35:59.555Z,1.81
2023-03-14T22:38:26.108Z,1.75
2023-03-14T22:40:53.027Z,1.69
2023-03-14T22:43:19.628Z,1.73
2023-03-14T22:45:46.242Z,1.67
2023-03-14T22:48:13.076Z,1.65
2023-03-14T22:50:40.426Z,1.61
2023-03-14T22:53:07.120Z,1.59
2023-03-14T22:55:33.935Z,1.54
2023-03-14T22:58:00.763Z,1.52
2023-03-14T23:00:28.047Z,1.52
2023-03-14T23:02:54.835Z,1.47
2023-03-14T23:05:21.788Z,1.44
2023-03-14T23:07:48.282Z,1.42
2023-03-14T23:10:14.820Z,1.40
2023-03-14T23:12:41.362Z,1.33
2023-03-14T23:15:08.521Z,1.30
2023-03-14T23:17:35.543Z,1.23
2023-03-14T23:20:02.274Z,1.20
2023-03-14T23:22:32.840Z,1.18
2023-03-14T23:25:01.175Z,1.12
2023-03-14T23:27:28.176Z,1.09
2023-03-14T23:29:54.659Z,1.08
2023-03-14T23:32:21.426Z,1.05
2023-03-14T23:34:48.403Z,1.01
2023-03-14T23:37:15.036Z,0.98
2023-03-14T23:39:44.602Z,0.89
2023-03-14T23:42:11.765Z,0.90
2023-03-14T23:44:38.396Z,0.83
2023-03-14T23:47:05.245Z,0.78
2023-03-14T23:49:32.128Z,0.77
2023-03-14T23:51:58.650Z,0.73
2023-03-14T23:54:25.394Z,0.74
2023-03-14T23:56:51.970Z,0.75
2023-03-14T23:59:18.520Z,0.71
